createdAt,value
2018-11-14T06:53:21.099Z,236.40
2018-11-14T07:00:54.721Z,247.60
2018-11-14T07:01:54.624Z,210.20
2018-11-14T07:02:54.553Z,320.70
2018-11-14T07:03:54.541Z,337.10
2018-11-14T07:04:54.647Z,305.30
2018-11-14T07:05:54.817Z,361.20
2018-11-14T07:06:55.277Z,259.60
2018-11-14T07:07:54.497Z,365.80
2018-11-14T07:08:54.485Z,270.60
2018-11-14T07:09:54.475Z,308.00
2018-11-14T07:10:54.492Z,336.70
2018-11-14T07:12:07.854Z,335.90
2018-11-14T07:12:54.474Z,306.10
2018-11-14T07:13:54.430Z,275.10
2018-11-14T07:14:54.476Z,276.40
2018-11-14T07:16:01.510Z,220.80
2018-11-14T07:17:03.426Z,177.10
2018-11-14T07:17:54.469Z,188.60
2018-11-14T07:18:54.379Z,172.30
2018-11-14T07:20:05.016Z,195.80
2018-11-14T07:21:01.376Z,168.90
2018-11-14T07:22:01.374Z,245.40
2018-11-14T07:23:01.580Z,176.30
2018-11-14T07:23:54.321Z,221.20
2018-11-14T07:25:01.336Z,173.10
2018-11-14T07:25:54.299Z,263.00
2018-11-14T07:26:54.337Z,200.20
2018-11-14T07:27:54.300Z,239.80
2018-11-14T07:28:54.299Z,233.80
2018-11-14T07:30:01.276Z,172.50
2018-11-14T07:31:01.276Z,262.80
2018-11-14T07:31:54.361Z,213.20
2018-11-14T07:32:55.301Z,216.20
2018-11-14T07:35:03.963Z,175.60
2018-11-14T07:36:03.947Z,240.60
2018-11-14T07:37:03.940Z,247.20
2018-11-14T07:38:03.947Z,182.90
2018-11-14T07:39:03.909Z,211.80
2018-11-14T07:40:03.902Z,110.10
2018-11-14T07:41:03.905Z,160.80
2018-11-14T07:42:03.882Z,173.80
2018-11-14T07:43:03.874Z,213.10
2018-11-14T07:44:03.875Z,180.40
2018-11-14T07:45:03.914Z,118.30
2018-11-14T07:46:03.831Z,130.30
2018-11-14T07:47:03.830Z,100.50
2018-11-14T07:48:03.812Z,163.50
2018-11-14T07:49:03.818Z,117.10
2018-11-14T07:50:03.846Z,179.80
2018-11-14T07:51:03.811Z,187.50
2018-11-14T07:52:03.830Z,156.80
2018-11-14T07:53:03.772Z,171.80
2018-11-14T07:54:03.768Z,175.60
2018-11-14T07:55:03.736Z,157.80
2018-11-14T07:56:03.726Z,123.10
2018-11-14T07:57:03.718Z,200.50
2018-11-14T07:58:03.701Z,160.40
2018-11-14T07:59:03.722Z,217.50
2018-11-14T08:00:03.700Z,212.20
2018-11-14T08:01:03.681Z,289.30
2018-11-14T08:02:03.671Z,304.80
2018-11-14T08:03:03.676Z,214.40
2018-11-14T08:04:03.659Z,149.40
2018-11-14T08:05:03.651Z,251.20
2018-11-14T08:06:03.617Z,192.50
2018-11-14T08:07:03.616Z,231.80
2018-11-14T08:08:03.654Z,201.60
2018-11-14T08:09:03.608Z,218.10
2018-11-14T08:10:03.578Z,212.00
2018-11-14T08:11:03.568Z,203.90
2018-11-14T08:12:03.573Z,317.60
2018-11-14T08:13:03.537Z,173.00
2018-11-14T08:14:03.570Z,277.30
2018-11-14T08:15:03.517Z,222.30
2018-11-14T08:16:03.549Z,239.70
2018-11-14T08:17:03.529Z,285.50
2018-11-14T08:18:03.482Z,238.30
2018-11-14T08:19:03.647Z,229.30
2018-11-14T08:20:03.490Z,183.30
2018-11-14T08:21:03.469Z,194.50
2018-11-14T08:22:03.499Z,214.40
2018-11-14T08:23:03.475Z,194.00
2018-11-14T08:24:03.465Z,177.30
2018-11-14T08:25:03.485Z,141.70
2018-11-14T08:26:03.395Z,197.30
2018-11-14T08:27:03.411Z,273.00
2018-11-14T08:28:03.433Z,206.20
2018-11-14T08:29:03.386Z,240.00
2018-11-14T08:30:03.363Z,311.10
2018-11-14T08:31:03.453Z,356.70
2018-11-14T08:32:03.323Z,221.00
2018-11-14T08:33:03.343Z,366.30
2018-11-14T08:34:03.315Z,321.60
2018-11-14T08:35:03.331Z,246.00
2018-11-14T08:36:03.299Z,248.70
2018-11-14T08:37:03.287Z,256.20
2018-11-14T08:38:03.284Z,165.30
2018-11-14T08:39:03.486Z,333.10
2018-11-14T08:40:03.266Z,219.60
2018-11-14T08:41:03.242Z,309.20
2018-11-14T08:42:03.233Z,340.50
2018-11-14T08:43:03.212Z,228.00
2018-11-14T08:44:03.198Z,240.90
2018-11-14T08:45:03.208Z,121.80
2018-11-14T08:46:03.201Z,240.90
2018-11-14T08:47:03.183Z,224.80
2018-11-14T08:48:03.154Z,231.30
2018-11-14T08:49:03.143Z,154.50
2018-11-14T08:50:03.153Z,169.50
2018-11-14T08:51:03.136Z,210.00
2018-11-14T08:52:03.801Z,180.50
2018-11-14T08:53:03.110Z,136.60
2018-11-14T08:54:03.079Z,207.20
2018-11-14T08:55:03.079Z,220.40
2018-11-14T08:56:03.126Z,185.90
2018-11-14T08:57:03.063Z,188.40
2018-11-14T08:58:03.121Z,227.10
2018-11-14T08:59:03.032Z,191.70
2018-11-14T09:00:03.014Z,212.00
2018-11-14T09:01:03.006Z,192.30
2018-11-14T09:02:03.010Z,124.30
2018-11-14T09:03:03.037Z,139.70
2018-11-14T09:04:03.062Z,180.40
2018-11-14T09:05:02.966Z,128.90
2018-11-14T09:06:02.988Z,223.90
2018-11-14T09:07:02.963Z,181.60
2018-11-14T09:08:02.936Z,208.10
2018-11-14T09:09:02.929Z,166.70
2018-11-14T09:10:02.977Z,205.20
2018-11-14T09:11:03.052Z,172.80
2018-11-14T09:12:02.960Z,148.50
2018-11-14T09:13:02.973Z,146.90
2018-11-14T09:14:02.867Z,146.30
2018-11-14T09:15:02.882Z,166.90
2018-11-14T09:16:02.877Z,169.10
2018-11-14T09:17:02.834Z,111.70
2018-11-14T09:18:02.882Z,140.40
2018-11-14T09:19:02.820Z,192.20
2018-11-14T09:20:02.803Z,137.90
2018-11-14T09:21:02.828Z,168.50
2018-11-14T09:22:02.779Z,169.90
2018-11-14T09:23:02.803Z,124.30
2018-11-14T09:24:02.757Z,177.60
2018-11-14T09:25:02.871Z,123.10
2018-11-14T09:26:02.735Z,142.10
2018-11-14T09:27:02.725Z,103.20
2018-11-14T09:28:02.723Z,138.40
2018-11-14T09:29:02.726Z,136.20
2018-11-14T09:30:02.709Z,124.70
2018-11-14T09:31:02.693Z,105.50
2018-11-14T09:32:02.686Z,89.10
2018-11-14T09:33:02.713Z,83.70
2018-11-14T09:34:02.689Z,135.40
2018-11-14T09:35:02.640Z,126.30
2018-11-14T09:36:02.624Z,85.70
2018-11-14T09:37:02.632Z,100.10
2018-11-14T09:38:02.642Z,71.20
2018-11-14T09:39:02.593Z,79.10
2018-11-14T09:40:02.701Z,85.50
2018-11-14T09:41:02.759Z,98.60
2018-11-14T09:42:02.598Z,104.30
2018-11-14T09:43:02.611Z,93.40
2018-11-14T09:44:02.529Z,98.40
2018-11-14T09:45:02.527Z,82.50
2018-11-14T09:46:02.530Z,88.70
2018-11-14T09:47:02.493Z,99.50
2018-11-14T09:48:02.549Z,113.80
2018-11-14T09:49:02.509Z,78.80
2018-11-14T09:50:02.462Z,82.10
2018-11-14T09:51:02.470Z,70.40
2018-11-14T09:52:02.475Z,74.40
2018-11-14T09:53:02.440Z,80.40
2018-11-14T09:54:02.452Z,50.40
2018-11-14T09:55:02.429Z,59.80
2018-11-14T09:56:02.480Z,68.30
2018-11-14T09:57:02.462Z,79.00
2018-11-14T09:58:02.395Z,66.50
2018-11-14T09:59:02.387Z,77.10
2018-11-14T10:00:02.394Z,91.50
2018-11-14T10:01:02.391Z,89.20
2018-11-14T10:02:02.361Z,85.00
2018-11-14T10:03:02.449Z,89.90
2018-11-14T10:04:02.345Z,82.30
2018-11-14T10:05:02.337Z,67.90
2018-11-14T10:06:02.355Z,75.30
2018-11-14T10:07:02.295Z,62.40
2018-11-14T10:08:02.368Z,67.40
2018-11-14T10:09:02.258Z,60.60
2018-11-14T10:10:02.248Z,52.10
2018-11-14T10:11:02.414Z,56.50
2018-11-14T10:12:02.222Z,62.80
2018-11-14T10:13:02.378Z,63.00
2018-11-14T10:14:02.213Z,58.20
2018-11-14T10:15:02.201Z,46.60
2018-11-14T10:16:02.207Z,74.60
2018-11-14T10:17:02.183Z,76.10
2018-11-14T10:18:02.156Z,72.60
2018-11-14T10:19:02.192Z,59.80
2018-11-14T10:20:02.167Z,42.50
2018-11-14T10:21:02.163Z,47.70
2018-11-14T10:22:02.147Z,45.00
2018-11-14T10:23:02.103Z,42.30
2018-11-14T10:24:02.094Z,37.70
2018-11-14T10:25:02.143Z,40.00
2018-11-14T10:26:02.063Z,34.50
2018-11-14T10:27:02.113Z,45.70
2018-11-14T10:28:02.090Z,38.50
2018-11-14T10:29:02.063Z,36.60
2018-11-14T10:30:02.028Z,30.80
2018-11-14T10:31:02.007Z,29.70
2018-11-14T10:32:01.996Z,41.30
2018-11-14T10:33:01.996Z,29.90
2018-11-14T10:34:02.006Z,40.30
2018-11-14T10:35:01.966Z,40.50
2018-11-14T10:36:01.962Z,33.10
2018-11-14T10:37:01.949Z,31.60
2018-11-14T10:38:01.928Z,36.00
2018-11-14T10:39:01.928Z,36.00
2018-11-14T10:40:01.905Z,38.50
2018-11-14T10:41:01.895Z,30.30
2018-11-14T10:42:01.891Z,49.90
2018-11-14T10:43:01.994Z,34.60
2018-11-14T10:44:01.929Z,31.50
2018-11-14T10:45:01.941Z,33.00
2018-11-14T10:46:01.870Z,47.80
2018-11-14T10:47:01.834Z,32.50
2018-11-14T10:48:01.830Z,30.30
2018-11-14T10:49:01.820Z,29.70
2018-11-14T10:50:01.802Z,24.60
2018-11-14T10:51:01.935Z,26.70
2018-11-14T10:52:01.778Z,29.00
2018-11-14T10:53:01.802Z,24.30
2018-11-14T10:54:01.778Z,33.80
2018-11-14T10:55:01.749Z,29.50
2018-11-14T10:56:01.735Z,23.20
2018-11-14T10:57:01.731Z,28.30
2018-11-14T10:58:01.714Z,23.50
2018-11-14T10:59:01.703Z,20.70
2018-11-14T11:00:01.695Z,19.80
2018-11-14T11:01:01.680Z,20.40
2018-11-14T11:02:01.670Z,22.80
2018-11-14T11:03:01.650Z,23.90
2018-11-14T11:04:01.683Z,26.00
2018-11-14T11:05:01.641Z,21.50
2018-11-14T11:06:01.622Z,17.50
2018-11-14T11:07:01.637Z,21.80
2018-11-14T11:08:01.624Z,18.80
2018-11-14T11:09:01.587Z,23.20
2018-11-14T11:10:01.643Z,20.50
2018-11-14T11:11:01.566Z,22.70
2018-11-14T11:12:01.551Z,21.80
2018-11-14T11:13:01.542Z,20.70
2018-11-14T11:14:01.624Z,21.60
2018-11-14T11:15:01.620Z,20.20
2018-11-14T11:16:01.513Z,22.40
2018-11-14T11:17:01.505Z,22.60
2018-11-14T11:18:01.499Z,25.20
2018-11-14T11:19:01.519Z,22.90
2018-11-14T11:20:01.526Z,21.90
2018-11-14T11:21:01.467Z,21.30
2018-11-14T11:22:01.475Z,24.90
2018-11-14T11:23:01.431Z,24.30
2018-11-14T11:24:01.448Z,24.60
2018-11-14T11:25:01.416Z,31.20
2018-11-14T11:26:01.413Z,31.90
2018-11-14T11:27:01.392Z,30.10
2018-11-14T11:28:01.396Z,27.90
2018-11-14T11:29:01.367Z,26.50
2018-11-14T11:30:01.393Z,29.40
2018-11-14T11:31:01.428Z,22.60
2018-11-14T11:32:01.439Z,27.20
2018-11-14T11:33:01.324Z,25.70
2018-11-14T11:34:01.311Z,26.00
2018-11-14T11:35:01.300Z,24.90
2018-11-14T11:36:01.360Z,25.80
2018-11-14T11:37:01.286Z,24.00
2018-11-14T11:38:01.292Z,23.30
2018-11-14T11:39:01.261Z,24.70
2018-11-14T11:40:01.261Z,23.90
2018-11-14T11:41:01.257Z,22.70
2018-11-14T11:42:01.226Z,22.80
2018-11-14T11:43:01.276Z,23.80
2018-11-14T11:44:01.205Z,25.70
2018-11-14T11:45:01.232Z,26.20
2018-11-14T11:46:01.199Z,28.50
2018-11-14T11:47:01.212Z,30.20
2018-11-14T11:48:01.201Z,29.90
2018-11-14T11:49:01.181Z,30.40
2018-11-14T11:50:01.203Z,31.20
2018-11-14T11:51:01.224Z,30.50
2018-11-14T11:52:01.127Z,26.30
2018-11-14T11:53:01.106Z,25.40
2018-11-14T11:54:01.119Z,27.00
2018-11-14T11:55:01.086Z,29.80
2018-11-14T11:56:01.067Z,29.10
2018-11-14T11:57:01.088Z,33.80
2018-11-14T11:58:01.076Z,27.40
2018-11-14T11:59:01.046Z,23.00
2018-11-14T12:00:01.094Z,20.20
2018-11-14T12:01:01.083Z,23.80
2018-11-14T12:02:01.085Z,23.00
2018-11-14T12:03:01.004Z,22.90
2018-11-14T12:04:00.994Z,25.80
2018-11-14T12:05:00.984Z,23.30
2018-11-14T12:06:01.103Z,23.60
2018-11-14T12:07:00.978Z,23.80
2018-11-14T12:08:00.963Z,23.30
2018-11-14T12:09:00.922Z,21.40
2018-11-14T12:10:00.930Z,23.00
2018-11-14T12:11:01.017Z,22.70
2018-11-14T12:12:00.891Z,25.90
2018-11-14T12:13:00.921Z,26.00
2018-11-14T12:14:00.877Z,25.50
2018-11-14T12:15:00.852Z,23.10
2018-11-14T12:16:00.864Z,23.10
2018-11-14T12:17:00.833Z,23.20
2018-11-14T12:18:00.820Z,24.70
2018-11-14T12:19:00.854Z,25.20
2018-11-14T12:20:00.807Z,24.70
2018-11-14T12:21:00.853Z,22.50
2018-11-14T12:22:00.782Z,23.10
2018-11-14T12:23:00.778Z,23.50
2018-11-14T12:24:00.754Z,22.90
2018-11-14T12:25:00.799Z,22.80
2018-11-14T12:26:00.756Z,24.00
2018-11-14T12:27:00.777Z,21.50
2018-11-14T12:28:00.739Z,25.60
2018-11-14T12:29:00.699Z,25.80
2018-11-14T12:30:00.798Z,27.40
2018-11-14T12:31:01.064Z,24.40
2018-11-14T12:32:00.716Z,26.50
2018-11-14T12:33:00.722Z,21.70
2018-11-14T12:34:00.671Z,22.70
2018-11-14T12:35:00.655Z,20.30
2018-11-14T12:36:00.717Z,18.70
2018-11-14T12:37:00.621Z,22.20
2018-11-14T12:38:00.597Z,19.90
2018-11-14T12:39:00.585Z,23.40
2018-11-14T12:40:00.585Z,24.00
2018-11-14T12:41:00.599Z,23.30
2018-11-14T12:42:00.556Z,22.40
2018-11-14T12:43:00.550Z,21.30
2018-11-14T12:44:00.531Z,20.30
2018-11-14T12:45:00.557Z,20.90
2018-11-14T12:46:00.520Z,19.70
2018-11-14T12:47:00.496Z,20.20
2018-11-14T12:48:00.491Z,22.10
2018-11-14T12:49:00.510Z,20.00
2018-11-14T12:50:00.485Z,21.10
2018-11-14T12:51:00.482Z,18.50
2018-11-14T12:52:00.451Z,19.50
2018-11-14T12:53:00.430Z,20.50
2018-11-14T12:54:00.421Z,19.40
2018-11-14T12:55:00.429Z,19.40
2018-11-14T12:56:00.408Z,21.20
2018-11-14T12:57:00.406Z,21.80
2018-11-14T12:58:00.380Z,22.90
2018-11-14T12:59:00.365Z,23.60
2018-11-14T13:00:00.405Z,22.60
2018-11-14T13:01:00.344Z,18.90
2018-11-14T13:02:00.354Z,20.40
2018-11-14T13:03:00.328Z,21.30
2018-11-14T13:04:00.317Z,21.80
2018-11-14T13:05:00.301Z,19.90
2018-11-14T13:06:00.308Z,20.70
2018-11-14T13:07:00.309Z,20.80
2018-11-14T13:08:00.268Z,21.60
2018-11-14T13:09:00.260Z,22.00
2018-11-14T13:10:00.256Z,20.50
2018-11-14T13:11:00.246Z,22.60
2018-11-14T13:12:00.235Z,26.30
2018-11-14T13:13:00.222Z,22.70
2018-11-14T13:14:00.206Z,22.10
2018-11-14T13:15:00.212Z,21.20
2018-11-14T13:16:00.195Z,21.00
2018-11-14T13:17:00.186Z,19.50
2018-11-14T13:18:00.190Z,20.60
2018-11-14T13:19:00.158Z,19.80
2018-11-14T13:20:00.137Z,19.50
2018-11-14T13:21:00.128Z,19.40
2018-11-14T13:22:00.115Z,18.50
2018-11-14T13:23:00.117Z,20.30
2018-11-14T13:24:00.103Z,23.30
2018-11-14T13:25:00.094Z,18.90
2018-11-14T13:26:00.071Z,20.90
2018-11-14T13:27:00.126Z,20.00
2018-11-14T13:28:00.073Z,22.00
2018-11-14T13:29:00.105Z,19.30
2018-11-14T13:30:00.063Z,20.00
2018-11-14T13:31:00.053Z,20.40
2018-11-14T13:32:00.051Z,20.70
2018-11-14T13:33:00.039Z,18.30
2018-11-14T13:34:00.003Z,19.60
2018-11-14T13:34:59.998Z,20.10
2018-11-14T13:35:59.978Z,19.80
2018-11-14T13:36:59.951Z,21.00
2018-11-14T13:37:59.950Z,21.50
2018-11-14T13:38:59.938Z,23.10
2018-11-14T13:39:59.931Z,20.70
2018-11-14T13:40:59.921Z,21.30
2018-11-14T13:41:59.904Z,21.80
2018-11-14T13:42:59.931Z,22.30
2018-11-14T13:43:59.887Z,18.10
2018-11-14T13:44:59.906Z,20.30
2018-11-14T13:45:59.863Z,21.10
2018-11-14T13:46:59.907Z,20.50
2018-11-14T13:47:59.913Z,23.50
2018-11-14T13:48:59.939Z,23.60
2018-11-14T13:49:59.905Z,21.90
2018-11-14T13:50:59.889Z,24.80
2018-11-14T13:51:59.804Z,19.90
2018-11-14T13:52:59.791Z,19.90
2018-11-14T13:53:59.847Z,19.70
2018-11-14T13:54:59.763Z,26.10
2018-11-14T13:55:59.765Z,25.30
2018-11-14T13:56:59.749Z,25.70
2018-11-14T13:57:59.723Z,24.20
2018-11-14T13:58:59.724Z,23.90
2018-11-14T13:59:59.690Z,51.50
2018-11-14T14:00:59.710Z,25.80
2018-11-14T14:01:59.689Z,23.10
2018-11-14T14:02:59.656Z,29.20
2018-11-14T14:03:59.680Z,23.00
2018-11-14T14:04:59.657Z,20.20
2018-11-14T14:05:59.639Z,20.90
2018-11-14T14:06:59.633Z,20.40
2018-11-14T14:07:59.675Z,18.80
2018-11-14T14:08:59.621Z,16.90
2018-11-14T14:09:59.626Z,18.70
2018-11-14T14:10:59.579Z,17.50
2018-11-14T14:11:59.576Z,17.50
2018-11-14T14:12:59.546Z,17.20
2018-11-14T14:13:59.538Z,18.30
2018-11-14T14:14:59.523Z,17.40
2018-11-14T14:15:59.523Z,19.70
2018-11-14T14:16:59.503Z,25.30
2018-11-14T14:17:59.489Z,27.00
2018-11-14T14:18:59.479Z,25.30
2018-11-14T14:19:59.482Z,21.90
2018-11-14T14:20:59.481Z,22.80
2018-11-14T14:21:59.456Z,19.90
2018-11-14T14:22:59.444Z,21.40
2018-11-14T14:23:59.451Z,19.40
2018-11-14T14:24:59.412Z,19.70
2018-11-14T14:25:59.418Z,20.40
2018-11-14T14:26:59.401Z,21.10
2018-11-14T14:28:00.240Z,21.00
2018-11-14T14:28:59.413Z,21.10
2018-11-14T14:29:59.376Z,19.40
2018-11-14T14:30:59.426Z,21.30
2018-11-14T14:31:59.363Z,20.80
2018-11-14T14:32:59.348Z,20.60
2018-11-14T14:33:59.319Z,22.00
2018-11-14T14:34:59.305Z,21.60
2018-11-14T14:35:59.370Z,23.90
2018-11-14T14:36:59.323Z,20.50
2018-11-14T14:37:59.342Z,22.10
2018-11-14T14:38:59.282Z,23.30
2018-11-14T14:39:59.299Z,23.00
2018-11-14T14:40:59.300Z,23.50
2018-11-14T14:41:59.234Z,22.40
2018-11-14T14:42:59.297Z,21.10
2018-11-14T14:43:59.278Z,22.70
2018-11-14T14:44:59.196Z,22.70
2018-11-14T14:45:59.215Z,25.60
2018-11-14T14:46:59.239Z,23.80
2018-11-14T14:47:59.201Z,24.60
2018-11-14T14:48:59.386Z,21.70
2018-11-14T14:49:59.205Z,21.30
2018-11-14T14:50:59.176Z,21.10
2018-11-14T14:51:59.207Z,20.00
2018-11-14T14:52:59.121Z,23.40
2018-11-14T14:53:59.097Z,24.60
2018-11-14T14:54:59.085Z,24.00
2018-11-14T14:55:59.081Z,22.50
2018-11-14T14:56:59.061Z,23.90
2018-11-14T14:57:59.135Z,25.70
2018-11-14T14:58:59.057Z,24.80
2018-11-14T14:59:59.033Z,24.30
2018-11-14T15:00:59.028Z,24.20
2018-11-14T15:01:59.030Z,23.40
2018-11-14T15:02:59.051Z,24.90
2018-11-14T15:03:58.986Z,24.00
2018-11-14T15:04:58.984Z,24.60
2018-11-14T15:05:59.004Z,23.00
2018-11-14T15:06:58.959Z,22.00
2018-11-14T15:07:58.960Z,47.60
2018-11-14T15:08:59.013Z,24.90
2018-11-14T15:09:58.917Z,24.40
2018-11-14T15:10:58.912Z,23.30
2018-11-14T15:11:58.910Z,23.10
2018-11-14T15:12:58.883Z,28.90
2018-11-14T15:13:58.909Z,27.80
2018-11-14T15:14:58.862Z,26.00
2018-11-14T15:15:58.855Z,25.30
2018-11-14T15:16:58.849Z,24.90
2018-11-14T15:17:58.826Z,23.70
2018-11-14T15:18:58.847Z,26.30
2018-11-14T15:19:58.811Z,21.60
2018-11-14T15:20:58.803Z,21.60
2018-11-14T15:21:58.785Z,22.30
2018-11-14T15:22:58.788Z,21.90
2018-11-14T15:23:58.842Z,20.30
2018-11-14T15:24:58.801Z,20.90
2018-11-14T15:25:58.745Z,21.30
2018-11-14T15:26:58.756Z,23.10
2018-11-14T15:27:58.720Z,22.90
2018-11-14T15:28:58.800Z,23.10
2018-11-14T15:29:58.736Z,21.80
2018-11-14T15:30:58.687Z,22.70
2018-11-14T15:31:58.676Z,25.10
2018-11-14T15:32:58.671Z,26.00
2018-11-14T15:33:58.681Z,25.30
2018-11-14T15:34:58.698Z,25.60
2018-11-14T15:35:58.676Z,26.20
2018-11-14T15:36:58.623Z,27.10
2018-11-14T15:37:58.613Z,26.10
2018-11-14T15:38:58.621Z,24.30
2018-11-14T15:39:58.625Z,24.30
2018-11-14T15:40:58.582Z,25.10
2018-11-14T15:41:58.571Z,23.80
2018-11-14T15:42:58.557Z,25.50
2018-11-14T15:43:58.550Z,24.30
2018-11-14T15:44:58.619Z,25.20
2018-11-14T15:45:58.566Z,24.20
2018-11-14T15:46:58.515Z,24.90
2018-11-14T15:47:58.496Z,25.30
2018-11-14T15:48:58.524Z,25.80
2018-11-14T15:49:58.484Z,23.60
2018-11-14T15:50:58.547Z,24.20
2018-11-14T15:51:58.469Z,23.90
2018-11-14T15:52:58.455Z,28.10
2018-11-14T15:53:58.473Z,23.90
2018-11-14T15:54:58.427Z,25.60
2018-11-14T15:55:58.431Z,24.40
2018-11-14T15:56:58.433Z,25.80
2018-11-14T15:57:58.405Z,26.40
2018-11-14T15:58:58.389Z,26.80
2018-11-14T15:59:58.389Z,27.20
2018-11-14T16:00:58.365Z,25.80
2018-11-14T16:01:58.385Z,28.00
2018-11-14T16:02:58.335Z,28.40
2018-11-14T16:03:58.333Z,26.50
2018-11-14T16:04:58.327Z,26.70
2018-11-14T16:05:58.332Z,26.90
2018-11-14T16:06:58.311Z,26.80
2018-11-14T16:07:58.282Z,29.50
2018-11-14T16:08:58.301Z,26.80
2018-11-14T16:09:58.262Z,25.30
2018-11-14T16:10:58.269Z,26.60
2018-11-14T16:11:58.286Z,30.60
2018-11-14T16:12:58.228Z,29.90
2018-11-14T16:13:58.223Z,28.20
2018-11-14T16:14:58.242Z,27.10
2018-11-14T16:15:58.189Z,28.30
2018-11-14T16:16:58.190Z,27.30
2018-11-14T16:17:58.251Z,27.20
2018-11-14T16:18:58.152Z,27.50
2018-11-14T16:19:58.150Z,26.30
2018-11-14T16:20:58.141Z,27.10
2018-11-14T16:21:58.156Z,28.60
2018-11-14T16:22:58.129Z,29.30
2018-11-14T16:23:58.108Z,30.60
2018-11-14T16:24:58.151Z,30.30
2018-11-14T16:25:58.122Z,31.00
2018-11-14T16:26:58.078Z,31.00
2018-11-14T16:27:58.077Z,31.20
2018-11-14T16:28:58.052Z,33.20
2018-11-14T16:29:58.044Z,30.00
2018-11-14T16:30:58.039Z,32.20
2018-11-14T16:31:58.029Z,32.00
2018-11-14T16:32:58.007Z,30.80
2018-11-14T16:33:58.000Z,31.70
2018-11-14T16:34:57.983Z,31.30
2018-11-14T16:35:57.983Z,30.20
2018-11-14T16:36:58.034Z,29.90
2018-11-14T16:37:57.959Z,31.50
2018-11-14T16:38:57.966Z,31.80
2018-11-14T16:39:58.069Z,30.10
2018-11-14T16:40:57.940Z,31.10
2018-11-14T16:41:57.913Z,31.00
2018-11-14T16:42:57.919Z,30.60
2018-11-14T16:43:57.911Z,30.50
2018-11-14T16:44:57.881Z,34.30
2018-11-14T16:45:57.877Z,31.70
2018-11-14T16:46:57.905Z,30.90
2018-11-14T16:47:57.950Z,33.50
2018-11-14T16:48:57.862Z,32.10
2018-11-14T16:49:57.859Z,34.00
2018-11-14T16:50:57.840Z,34.70
2018-11-14T16:51:57.805Z,36.00
2018-11-14T16:52:57.789Z,38.10
2018-11-14T16:53:57.868Z,38.10
2018-11-14T16:55:05.275Z,35.70
2018-11-14T16:56:05.920Z,36.00
2018-11-14T16:56:57.800Z,34.70
2018-11-14T16:57:57.754Z,37.40
2018-11-14T16:58:57.747Z,36.10
2018-11-14T16:59:57.717Z,37.20
2018-11-14T17:00:57.707Z,33.60
2018-11-14T17:01:57.677Z,36.70
2018-11-14T17:02:57.672Z,36.10
2018-11-14T17:03:57.662Z,33.90
2018-11-14T17:04:57.682Z,39.00
2018-11-14T17:05:57.674Z,37.70
2018-11-14T17:06:57.635Z,34.10
2018-11-14T17:07:57.626Z,37.00
2018-11-14T17:08:57.610Z,36.00
2018-11-14T17:09:57.623Z,39.60
2018-11-14T17:10:57.627Z,38.40
2018-11-14T17:11:57.581Z,36.00
2018-11-14T17:12:57.576Z,38.30
2018-11-14T17:13:57.545Z,39.00
2018-11-14T17:14:57.606Z,35.50
2018-11-14T17:15:57.546Z,33.40
2018-11-14T17:16:57.518Z,35.90
2018-11-14T17:17:57.517Z,36.50
2018-11-14T17:18:57.491Z,39.40
2018-11-14T17:19:57.517Z,38.60
2018-11-14T17:20:57.509Z,36.20
2018-11-14T17:21:57.468Z,35.50
2018-11-14T17:22:57.457Z,35.90
2018-11-14T17:23:57.447Z,38.30
2018-11-14T17:24:57.451Z,36.90
2018-11-14T17:25:57.502Z,35.00
2018-11-14T17:26:57.466Z,34.30
2018-11-14T17:27:57.391Z,38.20
2018-11-14T17:28:57.390Z,36.90
2018-11-14T17:29:57.400Z,37.60
2018-11-14T17:30:57.406Z,35.00
2018-11-14T17:31:57.383Z,34.60
2018-11-14T17:32:57.381Z,35.50
2018-11-14T17:33:57.330Z,34.50
2018-11-14T17:34:57.323Z,35.20
2018-11-14T17:35:57.376Z,35.20
2018-11-14T17:36:57.331Z,34.10
2018-11-14T17:37:57.285Z,35.20
2018-11-14T17:38:57.296Z,35.70
2018-11-14T17:39:57.285Z,34.40
2018-11-14T17:40:57.268Z,37.20
2018-11-14T17:41:57.449Z,37.00
2018-11-14T17:42:57.472Z,38.00
2018-11-14T17:43:57.863Z,39.20
2018-11-14T17:44:57.277Z,40.80
2018-11-14T17:45:57.191Z,39.60
2018-11-14T17:46:57.235Z,42.10
2018-11-14T17:47:57.194Z,42.70
2018-11-14T17:48:57.172Z,41.10
2018-11-14T17:49:57.186Z,42.70
2018-11-14T17:50:57.201Z,41.20
2018-11-14T17:51:57.177Z,43.90
2018-11-14T17:52:57.147Z,43.30
2018-11-14T17:53:57.125Z,43.40
2018-11-14T17:54:57.181Z,46.60
2018-11-14T17:55:57.120Z,43.10
2018-11-14T17:56:57.109Z,40.70
2018-11-14T17:57:57.092Z,40.80
2018-11-14T17:58:57.101Z,43.80
2018-11-14T17:59:57.043Z,47.80
2018-11-14T18:00:57.091Z,46.90
2018-11-14T18:01:57.017Z,46.30
2018-11-14T18:02:57.115Z,42.40
2018-11-14T18:03:57.029Z,42.80
2018-11-14T18:04:56.981Z,42.10
2018-11-14T18:05:57.031Z,45.60
2018-11-14T18:06:56.989Z,46.70
2018-11-14T18:07:56.976Z,43.90
2018-11-14T18:08:56.982Z,40.70
2018-11-14T18:09:56.950Z,41.40
2018-11-14T18:10:56.921Z,43.30
2018-11-14T18:11:56.924Z,43.80
2018-11-14T18:12:56.903Z,43.00
2018-11-14T18:13:56.923Z,44.40
2018-11-14T18:14:56.878Z,43.70
2018-11-14T18:15:56.870Z,44.90
2018-11-14T18:16:56.859Z,44.10
2018-11-14T18:17:56.842Z,45.50
2018-11-14T18:18:56.853Z,40.70
2018-11-14T18:19:56.839Z,38.50
2018-11-14T18:20:56.807Z,41.50
2018-11-14T18:21:56.807Z,40.70
2018-11-14T18:22:56.799Z,42.50
2018-11-14T18:23:56.797Z,41.30
2018-11-14T18:24:56.784Z,44.30
2018-11-14T18:25:56.753Z,45.00
2018-11-14T18:26:56.744Z,41.10
2018-11-14T18:27:56.777Z,39.10
2018-11-14T18:28:56.720Z,43.80
2018-11-14T18:29:56.758Z,43.80
2018-11-14T18:30:56.721Z,45.80
2018-11-14T18:31:56.693Z,42.60
2018-11-14T18:32:56.673Z,45.40
2018-11-14T18:33:56.736Z,44.50
2018-11-14T18:34:56.764Z,44.10
2018-11-14T18:35:56.908Z,40.60
2018-11-14T18:36:56.652Z,41.10
2018-11-14T18:37:56.651Z,43.80
2018-11-14T18:38:56.609Z,44.60
2018-11-14T18:39:56.624Z,40.20
2018-11-14T18:40:56.622Z,43.10
2018-11-14T18:41:56.581Z,42.10
2018-11-14T18:42:56.580Z,43.70
2018-11-14T18:43:56.559Z,44.50
2018-11-14T18:44:56.565Z,47.60
2018-11-14T18:45:56.719Z,44.40
2018-11-14T18:46:56.549Z,45.90
2018-11-14T18:47:56.506Z,43.30
2018-11-14T18:48:56.551Z,44.40
2018-11-14T18:49:56.543Z,44.10
2018-11-14T18:50:56.492Z,41.60
2018-11-14T18:51:56.503Z,41.50
2018-11-14T18:52:56.493Z,42.80
2018-11-14T18:53:56.447Z,45.60
2018-11-14T18:54:56.427Z,40.40
2018-11-14T18:55:56.430Z,42.80
2018-11-14T18:56:56.430Z,44.20
2018-11-14T18:57:56.525Z,40.80
2018-11-14T18:58:56.391Z,41.40
2018-11-14T18:59:56.374Z,42.80
2018-11-14T19:00:56.360Z,42.80
2018-11-14T19:01:56.357Z,44.40
2018-11-14T19:02:56.396Z,42.10
2018-11-14T19:03:56.349Z,41.20
2018-11-14T19:04:56.323Z,40.10
2018-11-14T19:05:56.319Z,42.70
2018-11-14T19:06:56.408Z,45.70
2018-11-14T19:07:56.302Z,47.90
2018-11-14T19:08:56.285Z,42.40
2018-11-14T19:09:56.283Z,44.60
2018-11-14T19:10:56.279Z,48.00
2018-11-14T19:11:56.264Z,58.30
2018-11-14T19:12:56.397Z,65.80
2018-11-14T19:13:56.278Z,68.20
2018-11-14T19:14:56.214Z,55.50
2018-11-14T19:15:56.241Z,54.80
2018-11-14T19:16:56.193Z,50.80
2018-11-14T19:17:56.196Z,48.50
2018-11-14T19:18:56.238Z,52.00
2018-11-14T19:19:56.178Z,61.60
2018-11-14T19:20:56.350Z,53.70
2018-11-14T19:21:56.133Z,55.20
2018-11-14T19:22:56.168Z,48.60
2018-11-14T19:23:56.131Z,51.40
2018-11-14T19:24:56.108Z,51.90
2018-11-14T19:25:56.106Z,47.20
2018-11-14T19:26:56.074Z,43.90
2018-11-14T19:27:56.122Z,44.00
2018-11-14T19:28:56.078Z,42.30
2018-11-14T19:29:56.050Z,42.10
2018-11-14T19:30:56.061Z,44.90
2018-11-14T19:31:56.086Z,41.60
2018-11-14T19:32:56.014Z,38.70
2018-11-14T19:33:56.003Z,44.80
2018-11-14T19:34:56.013Z,43.70
2018-11-14T19:35:56.004Z,44.00
2018-11-14T19:36:56.023Z,48.70
2018-11-14T19:37:55.966Z,45.40
2018-11-14T19:38:55.946Z,41.10
2018-11-14T19:39:55.964Z,51.90
2018-11-14T19:40:55.955Z,47.60
2018-11-14T19:41:55.950Z,44.10
2018-11-14T19:42:55.904Z,48.50
2018-11-14T19:43:55.898Z,46.40
2018-11-14T19:44:55.904Z,40.60
2018-11-14T19:45:55.869Z,40.00
2018-11-14T19:46:55.880Z,42.10
2018-11-14T19:47:55.842Z,41.40